My Meet Scores
Destiny Lyons, Flipstar Gymnastics Academy - MyMeetScores.com
Top100 | Top Teams | Upcoming Meets | Completed Meets | Latest | Add Scores | Help| Support | Bookmark and Share

Destiny Lyons, Flipstar Gymnastics Academy
Personal Bests
LevelVault BarsBeamFloorAA
8.5007.550 8.1008.15032.300
49.2758.825 9.0009.07535.500
58.9009.225 9.6259.02536.300
68.5007.700 8.2757.80031.375
Meet Scores
Date Meet Team Session Level Division Vault Bars Beam Floor AA
2012-02-25 Midwest Open 2012 Flipstar Gymnastics Academy 5B 6 Lvl 6: 12 & up 8.500 21 7.700 23 8.275 17 6.900 24 31.375 24
2011-11-11 2011 Illinois Judges Cup Flipstar Gymnastics Academy 7A 6 11-12 7.750 32 7.550 25 8.050 22 7.800 31 31.150 30
2011-04-01 2011 Illinois Level 5 State Meet Flipstar Gymnastics Academy 3 5 Sr.A 8.875 11 9.175 10 9.225 9 9.025 19 36.300 10
2011-03-04 Flip'r Meet Flipstar Gymnastics Academy 6 5 11+ 8.550 14 8.200 14 9.175 6 8.775 11 34.700 13
2011-02-26 Midwest Open Flipstar Gymnastics Academy 2A 5 11 8.350 10 9.000 11 9.125 7 8.650 6 35.125 9
2011-02-19 Big Dream Classic Flipstar Gymnastics Academy 4B 5 11yrs & up 8.750 14T 9.225 11T 9.175 6T 8.625 18 35.775 13
2011-02-11 IGI Chicago Style Gymnastics Meet Flipstar Gymnastics Academy 632 5 11 & Over 8.450 19T 8.700 13T 9.625 1 8.675 18 35.450 9
2011-01-08 Crossroads Classic Flipstar Gymnastics Academy 2A 5 Sr B 8.475 10T 8.650 10 9.275 2T 8.500 8T 34.900 8
2010-12-03 Make a Wish Flipstar Gymnastics Academy 10 5 10-11 8.600 18 8.925 9 9.200 9 8.350 20T 35.075 15
2010-04-23 2010 Illinois Level 5 State Championships Flipstar Gymnastics Academy 5 Jr.B 8.900 25 8.000 31 9.050 12 8.475 30 34.425 28
2010-02-27 Midwest Open Flipstar Gymnastics Academy 3A 5 10 8.375 20 8.300 21 8.525 17 7.800 23 33.000 22
2010-02-20 BIG Dream Classic 2010 Flipstar Gymnastics Academy 2A 5 10 8.250 27 7.750 26 8.550 27 8.150 29 32.700 29
2010-02-12 IGI Chicago Style Gymnastics Meet Flipstar Gymnastics Academy 621 5 10 Yr Olds 8.375 20 7.850 20T 7.750 25 8.000 19 31.975 21
2010-01-30 The King Arthur Invitational 2010 Flipstar Gymnastics Academy 5 SrA 8.500 14 7.350 23 8.725 12 7.650 22 32.225 21
2010-01-22 Bravo Classic 2010 Flipstar Gymnastics Academy 3B 5 10 0.000 14 0.000 14 0.000 14 0.000 14 0.000 14
2009-11-13 2009 North Judges Cup Flipstar Gymnastics Academy 6A 5 10 7.650 12 0.000 15 8.650 8 0.000 15 16.300 15
2009-03-13 2009 Illinois Level 4 State Championships Gym-KineticsSportsComplex 4 JrD 9.275 21 8.675 19 8.850 9 8.700 19 35.500 16
2009-02-13 For Love or Money Gym Kinetics Sports Complex LoveGym 4 9 9.150 37T 8.200 88 8.550 74 9.075 42 34.975 72T
2009-01-17 St. Jude Benefit Meet Gym Kinetics Sports Complex 10 4 Lvl4:9-11 9.000 13 8.700 20 8.850 14 8.900 12 35.450 20
2008-12-13 St Nick Invite Gym Kinetics Sports Complex 5 4 All 8.750 41 8.400 45 9.000 18 8.625 45 34.775 35
2008-11-22 Thanksgiving Classic Gym Kinetics Sports Complex 6 4 Ch 9+ 8.850 12T 8.250 17T 8.750 4T 9.050 3 34.900 8
2008-11-15 Thanks To You Co~Ed Classic Gym Kinetics Sports Complex 2 4 9-11yrs. 8.350 14 8.825 6 8.600 6 8.600 7 34.375 8
2008-03-07 Flip'r Meet 2008 Flipstar Gymnastics Academy 2 4 6-8yrs 8.700 32 8.550 26 8.600 21 8.300 37 34.150 31
2008-02-09 For Love or Money 2008 Gym Kinetics Gymnastics LoveGym 4 8 9.175 62T 8.400 62T 8.450 57T 8.750 81T 34.775 65T
2008-02-09 For Love or Money 2008 Gym Kinetics Gymnastics MoneyGym 4 8 0.000 1T 0.000 1T 0.000 1T 0.000 1T 0.000 1T
2008-01-25 2008 Bravo Classic Gym Kinetics Gymnastics 1B 4 8yrs 8.900 16 8.350 17 8.600 11 8.350 20 34.200 19
2007-12-07 St. Nick Invite Flipstar Gymnastics Academy 16 4 All 8.900 30 8.550 28 7.700 47 8.350 44 33.500 34

www.lazysuits.com